EJA209 KORL-KBKL
Flight info
| Callsign | EJA209 |
|---|---|
| Flight time | N/A |
| Altitude | 39000 |
| Route | NYTES2 NYTES WORMS GUANO BKENI VIYAP |
| Aircraft | CL60/M-SADE3FGHIJ3J4J7P2RWXY/HB1D1 |
Departure
| Time | 2026-05-04 23:57 |
|---|---|
| Airport | Orlando Executive Airport (KORL) |
Arrival
| Time | N/A |
|---|---|
| Airport | Burke Lakefront Airport (KBKL) |
| Time | Latitude | Longitude | Altitude | Speed | Heading |
|---|---|---|---|---|---|
| 2026-05-04 23:20 | 28.54793 | -81.33743 | 110 ft | 0 kts | 320° |
| 2026-05-04 23:48 | 28.54798 | -81.33749 | 110 ft | 3 kts | 304° |
| 2026-05-04 23:48 | 28.54787 | -81.33780 | 110 ft | 7 kts | 202° |
| 2026-05-04 23:48 | 28.54733 | -81.33775 | 110 ft | 8 kts | 156° |
| 2026-05-04 23:48 | 28.54682 | -81.33727 | 110 ft | 11 kts | 130° |
| 2026-05-04 23:49 | 28.54626 | -81.33653 | 110 ft | 13 kts | 130° |
| 2026-05-04 23:49 | 28.54576 | -81.33588 | 109 ft | 8 kts | 148° |
| 2026-05-04 23:49 | 28.54543 | -81.33642 | 109 ft | 11 kts | 250° |
| 2026-05-04 23:49 | 28.54505 | -81.33738 | 109 ft | 13 kts | 249° |
| 2026-05-04 23:50 | 28.54460 | -81.33851 | 108 ft | 17 kts | 241° |
| 2026-05-04 23:50 | 28.54422 | -81.33942 | 109 ft | 10 kts | 250° |
| 2026-05-04 23:50 | 28.54385 | -81.33970 | 108 ft | 6 kts | 154° |
| 2026-05-04 23:50 | 28.54365 | -81.33959 | 108 ft | 0 kts | 155° |
| 2026-05-04 23:52 | 28.54364 | -81.33958 | 108 ft | 0 kts | 154° |
| 2026-05-04 23:55 | 28.54345 | -81.33949 | 108 ft | 5 kts | 157° |
| 2026-05-04 23:56 | 28.54301 | -81.33927 | 107 ft | 3 kts | 157° |
| 2026-05-04 23:56 | 28.54289 | -81.33896 | 107 ft | 6 kts | 67° |
| 2026-05-04 23:56 | 28.54351 | -81.33744 | 107 ft | 62 kts | 64° |
| 2026-05-04 23:56 | 28.54651 | -81.32949 | 142 ft | 145 kts | 68° |
| 2026-05-04 23:57 | 28.55127 | -81.31837 | 712 ft | 169 kts | 64° |
| 2026-05-04 23:57 | 28.55875 | -81.30671 | 1279 ft | 193 kts | 53° |
| 2026-05-04 23:57 | 28.56728 | -81.29483 | 1783 ft | 196 kts | 55° |
| 2026-05-04 23:57 | 28.57565 | -81.28256 | 1963 ft | 195 kts | 56° |
| 2026-05-04 23:58 | 28.58401 | -81.27031 | 1985 ft | 196 kts | 56° |
| 2026-05-04 23:58 | 28.59236 | -81.25810 | 1983 ft | 195 kts | 55° |
| 2026-05-04 23:58 | 28.60071 | -81.24587 | 1981 ft | 195 kts | 55° |
| 2026-05-04 23:58 | 28.60905 | -81.23366 | 1980 ft | 195 kts | 55° |
| 2026-05-04 23:59 | 28.61728 | -81.22141 | 1982 ft | 194 kts | 58° |
| 2026-05-04 23:59 | 28.62431 | -81.20837 | 1984 ft | 193 kts | 63° |
| 2026-05-04 23:59 | 28.63092 | -81.19508 | 1983 ft | 193 kts | 63° |
| 2026-05-04 23:59 | 28.63751 | -81.18172 | 1983 ft | 193 kts | 63° |
| 2026-05-05 00:00 | 28.64405 | -81.16841 | 1985 ft | 192 kts | 63° |
| 2026-05-05 00:00 | 28.64624 | -81.16397 | 1984 ft | 192 kts | 63° |
| 2026-05-05 00:00 | 28.65706 | -81.14191 | 2082 ft | 187 kts | 63° |
| 2026-05-05 00:00 | 28.66350 | -81.12884 | 2483 ft | 193 kts | 63° |
| 2026-05-05 00:01 | 28.67009 | -81.11546 | 2918 ft | 196 kts | 63° |
| 2026-05-05 00:01 | 28.67684 | -81.10180 | 3356 ft | 201 kts | 63° |
| 2026-05-05 00:01 | 28.68370 | -81.08783 | 3787 ft | 205 kts | 63° |
| 2026-05-05 00:01 | 28.69072 | -81.07343 | 3978 ft | 209 kts | 63° |
| 2026-05-05 00:02 | 28.69773 | -81.05894 | 3989 ft | 208 kts | 63° |
| 2026-05-05 00:02 | 28.70470 | -81.04452 | 3985 ft | 207 kts | 63° |
| 2026-05-05 00:02 | 28.71163 | -81.03018 | 3985 ft | 206 kts | 63° |
| 2026-05-05 00:02 | 28.71916 | -81.01463 | 3992 ft | 207 kts | 63° |
| 2026-05-05 00:03 | 28.72612 | -81.00022 | 3991 ft | 208 kts | 63° |
| 2026-05-05 00:03 | 28.73343 | -80.98600 | 3991 ft | 209 kts | 53° |
| 2026-05-05 00:03 | 28.74545 | -80.97687 | 4013 ft | 212 kts | 13° |
| 2026-05-05 00:03 | 28.76026 | -80.97907 | 4404 ft | 237 kts | 333° |
| 2026-05-05 00:04 | 28.77286 | -80.99279 | 5018 ft | 268 kts | 298° |
| 2026-05-05 00:04 | 28.77809 | -81.01327 | 5776 ft | 278 kts | 276° |
| 2026-05-05 00:04 | 28.78006 | -81.03565 | 6124 ft | 285 kts | 274° |
| 2026-05-05 00:04 | 28.78176 | -81.05776 | 6364 ft | 276 kts | 274° |
| 2026-05-05 00:05 | 28.78365 | -81.07945 | 6627 ft | 275 kts | 279° |
| 2026-05-05 00:05 | 28.79059 | -81.09986 | 6900 ft | 286 kts | 303° |
| 2026-05-05 00:05 | 28.80390 | -81.11747 | 7937 ft | 299 kts | 311° |
| 2026-05-05 00:05 | 28.81737 | -81.13423 | 9556 ft | 290 kts | 310° |
| 2026-05-05 00:06 | 28.83073 | -81.15102 | 10763 ft | 296 kts | 311° |
| 2026-05-05 00:06 | 28.84530 | -81.16936 | 11197 ft | 328 kts | 311° |
| 2026-05-05 00:06 | 28.86102 | -81.18913 | 11959 ft | 345 kts | 311° |
| 2026-05-05 00:06 | 28.87735 | -81.20965 | 12913 ft | 354 kts | 311° |
| 2026-05-05 00:07 | 28.89388 | -81.23044 | 13927 ft | 359 kts | 311° |
| 2026-05-05 00:07 | 28.91074 | -81.25164 | 14741 ft | 368 kts | 311° |
| 2026-05-05 00:07 | 28.92818 | -81.27360 | 15028 ft | 375 kts | 311° |
| 2026-05-05 00:07 | 28.94560 | -81.29552 | 15289 ft | 369 kts | 311° |
| 2026-05-05 00:08 | 28.96275 | -81.31711 | 15526 ft | 367 kts | 310° |
| 2026-05-05 00:08 | 28.98023 | -81.33914 | 16070 ft | 380 kts | 310° |
| 2026-05-05 00:08 | 28.99877 | -81.36023 | 17217 ft | 378 kts | 319° |
| 2026-05-05 00:08 | 29.02117 | -81.37564 | 18302 ft | 381 kts | 333° |
| 2026-05-05 00:09 | 29.04687 | -81.38353 | 19244 ft | 389 kts | 348° |
| 2026-05-05 00:09 | 29.07402 | -81.38638 | 20040 ft | 395 kts | 351° |
| 2026-05-05 00:09 | 29.10151 | -81.38851 | 20853 ft | 400 kts | 354° |
| 2026-05-05 00:09 | 29.12968 | -81.38693 | 21564 ft | 408 kts | 359° |
| 2026-05-05 00:10 | 29.15809 | -81.38458 | 22271 ft | 411 kts | 358° |
| 2026-05-05 00:10 | 29.18633 | -81.38619 | 22990 ft | 404 kts | 344° |
| 2026-05-05 00:10 | 29.21429 | -81.39151 | 23609 ft | 414 kts | 351° |
| 2026-05-05 00:10 | 29.24348 | -81.38924 | 24233 ft | 426 kts | 1° |
| 2026-05-05 00:11 | 29.27304 | -81.38505 | 24851 ft | 430 kts | 1° |
| 2026-05-05 00:11 | 29.30278 | -81.38099 | 25519 ft | 432 kts | 0° |
| 2026-05-05 00:11 | 29.33277 | -81.37705 | 26097 ft | 436 kts | 360° |
| 2026-05-05 00:11 | 29.36315 | -81.37324 | 26662 ft | 439 kts | 359° |
| 2026-05-05 00:12 | 29.39372 | -81.36959 | 27134 ft | 443 kts | 359° |
| 2026-05-05 00:12 | 29.42451 | -81.36610 | 27621 ft | 447 kts | 359° |
| 2026-05-05 00:12 | 29.45568 | -81.36274 | 28126 ft | 450 kts | 358° |
| 2026-05-05 00:12 | 29.48695 | -81.35953 | 28566 ft | 453 kts | 358° |
| 2026-05-05 00:13 | 29.51847 | -81.35657 | 28996 ft | 455 kts | 357° |
| 2026-05-05 00:13 | 29.55018 | -81.35393 | 29423 ft | 457 kts | 356° |
| 2026-05-05 00:13 | 29.58195 | -81.35130 | 29882 ft | 458 kts | 356° |
| 2026-05-05 00:13 | 29.61369 | -81.34868 | 30425 ft | 456 kts | 356° |
| 2026-05-05 00:14 | 29.64513 | -81.34684 | 31023 ft | 448 kts | 353° |
| 2026-05-05 00:14 | 29.67605 | -81.34799 | 31596 ft | 442 kts | 349° |
| 2026-05-05 00:14 | 29.70678 | -81.34971 | 32126 ft | 440 kts | 349° |
| 2026-05-05 00:14 | 29.73730 | -81.35138 | 32673 ft | 437 kts | 349° |
| 2026-05-05 00:15 | 29.76765 | -81.35305 | 33112 ft | 436 kts | 350° |
| 2026-05-05 00:15 | 29.79794 | -81.35471 | 33547 ft | 435 kts | 350° |
| 2026-05-05 00:15 | 29.82821 | -81.35637 | 34013 ft | 433 kts | 350° |
| 2026-05-05 00:15 | 29.85830 | -81.35803 | 34393 ft | 433 kts | 349° |
| 2026-05-05 00:16 | 29.88852 | -81.35970 | 34765 ft | 433 kts | 349° |
| 2026-05-05 00:16 | 29.91857 | -81.36136 | 35144 ft | 433 kts | 349° |
| 2026-05-05 00:16 | 29.94880 | -81.36303 | 35473 ft | 433 kts | 349° |
| 2026-05-05 00:16 | 29.97899 | -81.36470 | 35781 ft | 434 kts | 349° |
| 2026-05-05 00:17 | 30.00929 | -81.36637 | 36090 ft | 434 kts | 349° |
| 2026-05-05 00:17 | 30.03953 | -81.36804 | 36362 ft | 435 kts | 349° |
| 2026-05-05 00:17 | 30.06988 | -81.36971 | 36686 ft | 435 kts | 349° |
| 2026-05-05 00:17 | 30.10003 | -81.37138 | 36953 ft | 435 kts | 349° |
| 2026-05-05 00:18 | 30.13052 | -81.37307 | 37173 ft | 437 kts | 349° |
| 2026-05-05 00:18 | 30.16099 | -81.37476 | 37413 ft | 437 kts | 349° |
| 2026-05-05 00:18 | 30.19152 | -81.37644 | 37652 ft | 438 kts | 349° |
| 2026-05-05 00:18 | 30.22206 | -81.37813 | 37888 ft | 438 kts | 349° |
| 2026-05-05 00:19 | 30.25246 | -81.37981 | 38160 ft | 437 kts | 349° |
| 2026-05-05 00:19 | 30.28284 | -81.38148 | 38442 ft | 436 kts | 349° |
| 2026-05-05 00:19 | 30.31317 | -81.38315 | 38667 ft | 436 kts | 348° |
| 2026-05-05 00:19 | 30.34357 | -81.38485 | 38771 ft | 439 kts | 349° |
| 2026-05-05 00:20 | 30.37413 | -81.38654 | 38963 ft | 438 kts | 348° |
| 2026-05-05 00:20 | 30.40468 | -81.38824 | 39080 ft | 440 kts | 348° |
| 2026-05-05 00:20 | 30.43552 | -81.38997 | 39069 ft | 444 kts | 348° |
| 2026-05-05 00:21 | 30.49768 | -81.39344 | 39075 ft | 449 kts | 348° |
| 2026-05-05 00:21 | 30.56022 | -81.39691 | 39085 ft | 450 kts | 349° |
| 2026-05-05 00:22 | 30.62283 | -81.40038 | 39083 ft | 450 kts | 348° |
| 2026-05-05 00:22 | 30.68522 | -81.40384 | 39076 ft | 449 kts | 348° |
| 2026-05-05 00:23 | 30.74762 | -81.40731 | 39090 ft | 448 kts | 348° |
| 2026-05-05 00:23 | 30.80984 | -81.41077 | 39077 ft | 447 kts | 348° |
| 2026-05-05 00:24 | 30.87196 | -81.41424 | 39071 ft | 446 kts | 348° |
| 2026-05-05 00:24 | 30.93393 | -81.41771 | 39074 ft | 446 kts | 348° |
| 2026-05-05 00:25 | 30.99594 | -81.42119 | 39084 ft | 446 kts | 348° |
| 2026-05-05 00:25 | 31.05806 | -81.42467 | 39078 ft | 446 kts | 348° |
| 2026-05-05 00:26 | 31.12006 | -81.42816 | 39080 ft | 445 kts | 348° |
| 2026-05-05 00:26 | 31.18203 | -81.43164 | 39083 ft | 444 kts | 348° |
| 2026-05-05 00:27 | 31.24382 | -81.43512 | 39081 ft | 444 kts | 349° |
| 2026-05-05 00:27 | 31.30573 | -81.43680 | 39086 ft | 446 kts | 350° |
| 2026-05-05 00:28 | 31.36761 | -81.43810 | 39081 ft | 445 kts | 350° |
| 2026-05-05 00:28 | 31.42962 | -81.43941 | 39074 ft | 445 kts | 350° |
| 2026-05-05 00:29 | 31.49164 | -81.44073 | 39070 ft | 446 kts | 350° |
| 2026-05-05 00:29 | 31.55336 | -81.44202 | 39079 ft | 444 kts | 350° |
| 2026-05-05 00:30 | 31.61517 | -81.44333 | 39071 ft | 443 kts | 350° |
| 2026-05-05 00:30 | 31.67683 | -81.44465 | 39079 ft | 443 kts | 350° |
| 2026-05-05 00:31 | 31.73894 | -81.44598 | 39072 ft | 443 kts | 350° |
| 2026-05-05 00:31 | 31.80075 | -81.44730 | 39077 ft | 442 kts | 350° |
| 2026-05-05 00:32 | 31.86250 | -81.44862 | 39073 ft | 442 kts | 351° |
| 2026-05-05 00:32 | 31.92396 | -81.44994 | 39080 ft | 441 kts | 350° |
| 2026-05-05 00:33 | 31.98556 | -81.45127 | 39077 ft | 442 kts | 350° |
| 2026-05-05 00:33 | 32.04708 | -81.45259 | 39085 ft | 441 kts | 351° |
| 2026-05-05 00:34 | 32.10858 | -81.45392 | 39077 ft | 442 kts | 351° |
| 2026-05-05 00:34 | 32.17020 | -81.45525 | 39077 ft | 442 kts | 351° |
| 2026-05-05 00:35 | 32.23168 | -81.45658 | 39072 ft | 442 kts | 351° |
| 2026-05-05 00:35 | 32.29325 | -81.45792 | 39077 ft | 442 kts | 351° |
| 2026-05-05 00:36 | 32.35510 | -81.45926 | 39075 ft | 442 kts | 351° |
| 2026-05-05 00:36 | 32.41663 | -81.46059 | 39072 ft | 442 kts | 351° |
| 2026-05-05 00:37 | 32.47846 | -81.46193 | 39070 ft | 442 kts | 351° |
| 2026-05-05 00:37 | 32.54003 | -81.46328 | 39066 ft | 442 kts | 351° |
| 2026-05-05 00:38 | 32.60176 | -81.46462 | 39073 ft | 442 kts | 352° |
| 2026-05-05 00:38 | 32.66326 | -81.46596 | 39078 ft | 442 kts | 352° |
| 2026-05-05 00:39 | 32.72479 | -81.46731 | 39067 ft | 442 kts | 352° |
| 2026-05-05 00:39 | 32.78638 | -81.46866 | 39064 ft | 441 kts | 352° |
| 2026-05-05 00:40 | 32.84805 | -81.47001 | 39062 ft | 442 kts | 352° |
| 2026-05-05 00:40 | 32.90967 | -81.47137 | 39060 ft | 442 kts | 352° |
| 2026-05-05 00:41 | 32.97135 | -81.47273 | 39065 ft | 442 kts | 352° |
| 2026-05-05 00:41 | 33.03297 | -81.47408 | 39064 ft | 443 kts | 352° |
| 2026-05-05 00:42 | 33.09471 | -81.47545 | 39057 ft | 442 kts | 352° |
| 2026-05-05 00:42 | 33.15638 | -81.47681 | 39064 ft | 442 kts | 352° |
| 2026-05-05 00:43 | 33.21809 | -81.47817 | 39058 ft | 442 kts | 352° |
| 2026-05-05 00:43 | 33.27978 | -81.47954 | 39059 ft | 443 kts | 352° |
| 2026-05-05 00:44 | 33.34144 | -81.48091 | 39058 ft | 443 kts | 353° |
| 2026-05-05 00:44 | 33.40323 | -81.48228 | 39047 ft | 443 kts | 353° |
| 2026-05-05 00:45 | 33.46489 | -81.48365 | 39054 ft | 443 kts | 353° |
| 2026-05-05 00:45 | 33.52665 | -81.48503 | 39049 ft | 443 kts | 353° |
| 2026-05-05 00:46 | 33.58836 | -81.48641 | 39049 ft | 443 kts | 353° |
| 2026-05-05 00:46 | 33.65032 | -81.48779 | 39050 ft | 443 kts | 353° |
| 2026-05-05 00:47 | 33.71207 | -81.48917 | 39047 ft | 443 kts | 353° |
| 2026-05-05 00:47 | 33.77389 | -81.49056 | 39049 ft | 443 kts | 353° |
| 2026-05-05 00:48 | 33.83574 | -81.49194 | 39036 ft | 442 kts | 353° |
| 2026-05-05 00:48 | 33.89746 | -81.49333 | 39039 ft | 442 kts | 353° |
| 2026-05-05 00:49 | 33.95901 | -81.49471 | 39036 ft | 442 kts | 353° |
| 2026-05-05 00:49 | 34.02056 | -81.49610 | 39029 ft | 443 kts | 353° |
| 2026-05-05 00:50 | 34.08214 | -81.49749 | 39032 ft | 443 kts | 353° |
| 2026-05-05 00:50 | 34.14390 | -81.49889 | 39040 ft | 443 kts | 353° |
| 2026-05-05 00:51 | 34.20575 | -81.50028 | 39041 ft | 442 kts | 353° |
| 2026-05-05 00:51 | 34.26734 | -81.50168 | 39032 ft | 442 kts | 353° |
| 2026-05-05 00:52 | 34.32901 | -81.50308 | 39029 ft | 443 kts | 353° |
| 2026-05-05 00:52 | 34.39068 | -81.50449 | 39028 ft | 443 kts | 353° |
| 2026-05-05 00:53 | 34.45251 | -81.50590 | 39024 ft | 443 kts | 353° |
| 2026-05-05 00:53 | 34.51432 | -81.50730 | 39025 ft | 443 kts | 353° |
| 2026-05-05 00:54 | 34.57550 | -81.50870 | 39021 ft | 443 kts | 353° |
| 2026-05-05 00:54 | 34.63774 | -81.51012 | 39021 ft | 443 kts | 353° |
| 2026-05-05 00:55 | 34.69940 | -81.51153 | 39014 ft | 443 kts | 353° |
| 2026-05-05 00:55 | 34.76107 | -81.51295 | 39016 ft | 443 kts | 353° |
| 2026-05-05 00:56 | 34.82285 | -81.51436 | 39018 ft | 443 kts | 353° |
| 2026-05-05 00:56 | 34.88456 | -81.51578 | 39020 ft | 443 kts | 353° |
| 2026-05-05 00:57 | 34.94630 | -81.51720 | 39020 ft | 443 kts | 353° |
| 2026-05-05 00:57 | 35.00554 | -81.51856 | 39023 ft | 443 kts | 353° |
| 2026-05-05 00:58 | 35.06738 | -81.52000 | 39015 ft | 444 kts | 353° |
| 2026-05-05 00:58 | 35.12911 | -81.52143 | 39027 ft | 443 kts | 353° |
| 2026-05-05 00:59 | 35.18937 | -81.52282 | 39028 ft | 443 kts | 353° |
| 2026-05-05 00:59 | 35.25109 | -81.52425 | 39041 ft | 443 kts | 353° |
| 2026-05-05 01:00 | 35.31290 | -81.52569 | 39029 ft | 443 kts | 353° |
| 2026-05-05 01:00 | 35.37315 | -81.52709 | 39028 ft | 444 kts | 353° |
| 2026-05-05 01:01 | 35.43597 | -81.52855 | 39025 ft | 443 kts | 353° |
| 2026-05-05 01:01 | 35.49758 | -81.52999 | 39022 ft | 442 kts | 353° |
| 2026-05-05 01:02 | 35.55883 | -81.53141 | 39027 ft | 442 kts | 353° |
| 2026-05-05 01:02 | 35.62026 | -81.53285 | 39032 ft | 442 kts | 353° |
| 2026-05-05 01:03 | 35.68179 | -81.53430 | 39042 ft | 442 kts | 353° |
| 2026-05-05 01:03 | 35.74334 | -81.53574 | 39040 ft | 443 kts | 353° |
| 2026-05-05 01:04 | 35.80496 | -81.53719 | 39042 ft | 442 kts | 353° |
| 2026-05-05 01:04 | 35.89763 | -81.53936 | 39050 ft | 442 kts | 353° |
| 2026-05-05 01:05 | 35.95922 | -81.54081 | 39039 ft | 441 kts | 353° |
| 2026-05-05 01:05 | 36.02087 | -81.54226 | 39046 ft | 440 kts | 354° |
| 2026-05-05 01:06 | 36.08071 | -81.54368 | 39050 ft | 440 kts | 354° |
| 2026-05-05 01:06 | 36.14259 | -81.54514 | 39050 ft | 441 kts | 354° |
| 2026-05-05 01:07 | 36.20423 | -81.54660 | 39059 ft | 441 kts | 354° |
| 2026-05-05 01:07 | 36.26618 | -81.54806 | 39062 ft | 441 kts | 354° |
| 2026-05-05 01:08 | 36.32801 | -81.54953 | 39055 ft | 441 kts | 354° |
| 2026-05-05 01:08 | 36.38954 | -81.55100 | 39063 ft | 442 kts | 354° |
| 2026-05-05 01:09 | 36.45148 | -81.55247 | 39067 ft | 442 kts | 354° |
| 2026-05-05 01:09 | 36.51333 | -81.55395 | 39062 ft | 442 kts | 354° |
| 2026-05-05 01:10 | 36.57537 | -81.55543 | 39051 ft | 442 kts | 354° |
| 2026-05-05 01:10 | 36.63718 | -81.55691 | 39043 ft | 442 kts | 354° |
| 2026-05-05 01:11 | 36.69927 | -81.55840 | 39040 ft | 443 kts | 354° |
| 2026-05-05 01:11 | 36.76127 | -81.55988 | 39040 ft | 442 kts | 354° |
| 2026-05-05 01:12 | 36.82334 | -81.56137 | 39031 ft | 443 kts | 354° |
| 2026-05-05 01:12 | 36.88520 | -81.56286 | 39040 ft | 443 kts | 354° |
| 2026-05-05 01:13 | 36.94733 | -81.56436 | 39045 ft | 443 kts | 354° |
| 2026-05-05 01:13 | 37.00962 | -81.56586 | 39042 ft | 443 kts | 354° |
| 2026-05-05 01:14 | 37.07174 | -81.56737 | 39028 ft | 444 kts | 354° |
| 2026-05-05 01:14 | 37.13388 | -81.56887 | 39015 ft | 443 kts | 354° |
| 2026-05-05 01:15 | 37.19593 | -81.57038 | 38999 ft | 444 kts | 354° |
| 2026-05-05 01:15 | 37.25784 | -81.57188 | 39007 ft | 443 kts | 354° |
| 2026-05-05 01:16 | 37.31970 | -81.57339 | 38998 ft | 443 kts | 354° |
| 2026-05-05 01:16 | 37.38191 | -81.57491 | 38982 ft | 443 kts | 354° |
| 2026-05-05 01:17 | 37.44381 | -81.57642 | 38969 ft | 444 kts | 354° |
| 2026-05-05 01:17 | 37.50591 | -81.57794 | 38973 ft | 444 kts | 354° |
| 2026-05-05 01:18 | 37.56789 | -81.57946 | 38972 ft | 444 kts | 354° |
| 2026-05-05 01:18 | 37.63009 | -81.58099 | 38977 ft | 444 kts | 355° |
| 2026-05-05 01:19 | 37.69218 | -81.58252 | 38978 ft | 444 kts | 355° |
| 2026-05-05 01:19 | 37.75440 | -81.58405 | 38980 ft | 444 kts | 354° |
| 2026-05-05 01:20 | 37.81633 | -81.58559 | 38964 ft | 446 kts | 355° |
| 2026-05-05 01:20 | 37.87878 | -81.58714 | 38945 ft | 445 kts | 355° |
| 2026-05-05 01:21 | 37.94074 | -81.58867 | 38950 ft | 445 kts | 355° |
| 2026-05-05 01:21 | 38.00305 | -81.59022 | 38939 ft | 445 kts | 355° |
| 2026-05-05 01:22 | 38.06505 | -81.59176 | 38936 ft | 445 kts | 355° |
| 2026-05-05 01:22 | 38.12680 | -81.59330 | 38928 ft | 445 kts | 355° |
| 2026-05-05 01:23 | 38.18883 | -81.59486 | 38921 ft | 445 kts | 355° |
| 2026-05-05 01:23 | 38.25091 | -81.59641 | 38919 ft | 445 kts | 355° |
| 2026-05-05 01:24 | 38.31293 | -81.59796 | 38920 ft | 445 kts | 355° |
| 2026-05-05 01:24 | 38.37505 | -81.59953 | 38908 ft | 445 kts | 355° |
| 2026-05-05 01:25 | 38.43719 | -81.60109 | 38908 ft | 445 kts | 355° |
| 2026-05-05 01:25 | 38.49915 | -81.60266 | 38901 ft | 445 kts | 355° |
| 2026-05-05 01:26 | 38.56120 | -81.60423 | 38898 ft | 445 kts | 355° |
| 2026-05-05 01:26 | 38.62346 | -81.60581 | 38893 ft | 445 kts | 355° |
| 2026-05-05 01:27 | 38.68556 | -81.60739 | 38887 ft | 446 kts | 355° |
| 2026-05-05 01:27 | 38.74761 | -81.60897 | 38882 ft | 446 kts | 355° |
| 2026-05-05 01:28 | 38.80968 | -81.61056 | 38878 ft | 446 kts | 355° |
| 2026-05-05 01:28 | 38.87177 | -81.61215 | 38877 ft | 446 kts | 355° |
| 2026-05-05 01:29 | 38.93391 | -81.61374 | 38867 ft | 446 kts | 355° |
| 2026-05-05 01:29 | 38.99599 | -81.61533 | 38870 ft | 446 kts | 355° |
| 2026-05-05 01:30 | 39.05809 | -81.61693 | 38857 ft | 446 kts | 355° |
| 2026-05-05 01:30 | 39.12006 | -81.61853 | 38858 ft | 446 kts | 355° |
| 2026-05-05 01:31 | 39.18204 | -81.62013 | 38857 ft | 447 kts | 355° |
| 2026-05-05 01:31 | 39.24367 | -81.62172 | 38863 ft | 446 kts | 355° |
| 2026-05-05 01:32 | 39.30556 | -81.62333 | 38847 ft | 447 kts | 355° |
| 2026-05-05 01:32 | 39.36598 | -81.62490 | 38846 ft | 446 kts | 355° |
| 2026-05-05 01:33 | 39.42595 | -81.62646 | 38848 ft | 446 kts | 355° |
| 2026-05-05 01:33 | 39.48812 | -81.62809 | 38843 ft | 447 kts | 355° |
| 2026-05-05 01:34 | 39.55085 | -81.62972 | 38847 ft | 447 kts | 355° |
| 2026-05-05 01:34 | 39.61355 | -81.63137 | 38432 ft | 453 kts | 355° |
| 2026-05-05 01:35 | 39.64508 | -81.63220 | 37827 ft | 452 kts | 355° |
| 2026-05-05 01:35 | 39.67652 | -81.63302 | 37224 ft | 450 kts | 355° |
| 2026-05-05 01:35 | 39.70812 | -81.63385 | 36662 ft | 450 kts | 355° |
| 2026-05-05 01:35 | 39.73975 | -81.63468 | 36156 ft | 451 kts | 355° |
| 2026-05-05 01:36 | 39.77140 | -81.63551 | 35538 ft | 452 kts | 356° |
| 2026-05-05 01:36 | 39.80291 | -81.63634 | 34957 ft | 452 kts | 356° |
| 2026-05-05 01:36 | 39.83444 | -81.63717 | 34335 ft | 453 kts | 356° |
| 2026-05-05 01:36 | 39.86620 | -81.63801 | 33744 ft | 454 kts | 356° |
| 2026-05-05 01:37 | 39.89820 | -81.63886 | 33129 ft | 455 kts | 356° |
| 2026-05-05 01:37 | 39.93005 | -81.63970 | 32517 ft | 457 kts | 356° |
| 2026-05-05 01:37 | 39.96193 | -81.64054 | 31912 ft | 458 kts | 356° |
| 2026-05-05 01:37 | 39.99395 | -81.64139 | 31303 ft | 461 kts | 356° |
| 2026-05-05 01:38 | 40.02590 | -81.64224 | 30701 ft | 463 kts | 356° |
| 2026-05-05 01:38 | 40.05810 | -81.64309 | 30073 ft | 463 kts | 356° |
| 2026-05-05 01:38 | 40.09024 | -81.64393 | 29472 ft | 459 kts | 356° |
| 2026-05-05 01:38 | 40.12178 | -81.64476 | 28856 ft | 456 kts | 356° |
| 2026-05-05 01:39 | 40.14967 | -81.64548 | 28333 ft | 452 kts | 356° |
| 2026-05-05 01:39 | 40.17991 | -81.64629 | 27743 ft | 448 kts | 356° |
| 2026-05-05 01:39 | 40.21087 | -81.64710 | 27149 ft | 443 kts | 356° |
| 2026-05-05 01:39 | 40.24068 | -81.64789 | 26574 ft | 440 kts | 356° |
| 2026-05-05 01:40 | 40.27177 | -81.64871 | 25979 ft | 436 kts | 356° |
| 2026-05-05 01:40 | 40.30193 | -81.64951 | 25407 ft | 432 kts | 356° |
| 2026-05-05 01:40 | 40.33188 | -81.65031 | 24827 ft | 429 kts | 355° |
| 2026-05-05 01:40 | 40.36146 | -81.65109 | 24269 ft | 425 kts | 355° |
| 2026-05-05 01:41 | 40.39087 | -81.65188 | 23701 ft | 422 kts | 355° |
| 2026-05-05 01:41 | 40.41990 | -81.65265 | 23156 ft | 419 kts | 355° |
| 2026-05-05 01:41 | 40.44896 | -81.65343 | 22589 ft | 415 kts | 355° |
| 2026-05-05 01:41 | 40.47772 | -81.65420 | 22041 ft | 412 kts | 355° |
| 2026-05-05 01:42 | 40.50604 | -81.65651 | 21484 ft | 407 kts | 348° |
| 2026-05-05 01:42 | 40.53388 | -81.66296 | 20929 ft | 403 kts | 346° |
| 2026-05-05 01:42 | 40.56053 | -81.66928 | 20401 ft | 400 kts | 346° |
| 2026-05-05 01:42 | 40.58853 | -81.67589 | 19849 ft | 397 kts | 346° |
| 2026-05-05 01:43 | 40.61579 | -81.68233 | 19309 ft | 393 kts | 346° |
| 2026-05-05 01:43 | 40.64269 | -81.68869 | 18777 ft | 390 kts | 346° |
| 2026-05-05 01:43 | 40.66919 | -81.69497 | 18247 ft | 387 kts | 345° |
| 2026-05-05 01:43 | 40.69403 | -81.70087 | 17762 ft | 384 kts | 346° |
| 2026-05-05 01:44 | 40.72035 | -81.70713 | 17274 ft | 381 kts | 345° |
| 2026-05-05 01:44 | 40.74622 | -81.71327 | 16777 ft | 376 kts | 345° |
| 2026-05-05 01:44 | 40.77177 | -81.71934 | 16296 ft | 369 kts | 345° |
| 2026-05-05 01:44 | 40.79680 | -81.72529 | 15814 ft | 363 kts | 345° |
| 2026-05-05 01:45 | 40.82124 | -81.73111 | 15343 ft | 356 kts | 345° |
| 2026-05-05 01:45 | 40.84540 | -81.73686 | 14876 ft | 348 kts | 344° |
| 2026-05-05 01:45 | 40.86905 | -81.74250 | 14416 ft | 344 kts | 344° |
| 2026-05-05 01:45 | 40.89291 | -81.74548 | 13962 ft | 347 kts | 355° |
| 2026-05-05 01:46 | 40.91716 | -81.74448 | 13492 ft | 346 kts | 356° |
| 2026-05-05 01:46 | 40.93553 | -81.74366 | 13144 ft | 344 kts | 356° |
| 2026-05-05 01:46 | 40.95930 | -81.74263 | 12691 ft | 341 kts | 356° |
| 2026-05-05 01:46 | 40.98120 | -81.74168 | 12269 ft | 336 kts | 355° |
| 2026-05-05 01:47 | 41.00431 | -81.74066 | 11826 ft | 328 kts | 355° |
| 2026-05-05 01:47 | 41.02694 | -81.73968 | 11394 ft | 322 kts | 355° |
| 2026-05-05 01:47 | 41.04915 | -81.73716 | 10973 ft | 322 kts | 5° |
| 2026-05-05 01:47 | 41.07017 | -81.72687 | 10526 ft | 328 kts | 20° |
| 2026-05-05 01:48 | 41.09072 | -81.71360 | 10062 ft | 323 kts | 18° |
| 2026-05-05 01:48 | 41.11090 | -81.70078 | 9648 ft | 319 kts | 20° |
| 2026-05-05 01:48 | 41.13007 | -81.68811 | 9253 ft | 314 kts | 20° |
| 2026-05-05 01:48 | 41.14946 | -81.67534 | 9062 ft | 303 kts | 19° |
| 2026-05-05 01:49 | 41.16712 | -81.66381 | 9012 ft | 304 kts | 19° |
| 2026-05-05 01:49 | 41.18750 | -81.65054 | 9017 ft | 306 kts | 19° |
| 2026-05-05 01:49 | 41.20394 | -81.63984 | 9020 ft | 307 kts | 19° |
| 2026-05-05 01:49 | 41.22376 | -81.62692 | 9035 ft | 308 kts | 19° |
| 2026-05-05 01:50 | 41.24326 | -81.61422 | 9015 ft | 308 kts | 19° |
| 2026-05-05 01:50 | 41.26265 | -81.60159 | 8979 ft | 309 kts | 19° |
| 2026-05-05 01:50 | 41.28067 | -81.58990 | 8712 ft | 311 kts | 19° |
| 2026-05-05 01:50 | 41.29839 | -81.57842 | 8369 ft | 309 kts | 19° |